createdAt,value
2022-10-23T00:01:18.482Z,11.10
2022-10-23T00:03:47.019Z,11.10
2022-10-23T00:06:16.109Z,11.10
2022-10-23T00:08:44.618Z,11.00
2022-10-23T00:11:14.834Z,11.00
2022-10-23T00:13:43.338Z,11.00
2022-10-23T00:16:11.744Z,10.90
2022-10-23T00:18:41.685Z,10.90
2022-10-23T00:21:11.731Z,10.90
2022-10-23T00:23:40.495Z,10.90
2022-10-23T00:26:11.147Z,10.90
2022-10-23T00:28:39.507Z,11.00
2022-10-23T00:31:07.726Z,10.90
2022-10-23T00:33:35.867Z,10.90
2022-10-23T00:36:07.675Z,10.80
2022-10-23T00:38:36.236Z,10.80
2022-10-23T00:41:05.002Z,10.80
2022-10-23T00:43:34.395Z,10.70
2022-10-23T00:46:02.874Z,10.70
2022-10-23T00:48:30.994Z,10.70
2022-10-23T00:50:58.990Z,10.70
2022-10-23T00:53:28.375Z,10.70
2022-10-23T00:55:57.717Z,10.70
2022-10-23T00:58:25.760Z,10.60
2022-10-23T01:00:56.006Z,10.60
2022-10-23T01:03:28.935Z,10.50
2022-10-23T01:06:06.270Z,10.50
2022-10-23T01:08:42.711Z,10.50
2022-10-23T01:11:16.145Z,10.50
2022-10-23T01:13:50.751Z,10.50
2022-10-23T01:16:24.777Z,10.40
2022-10-23T01:19:00.135Z,10.40
2022-10-23T01:21:36.047Z,10.40
2022-10-23T01:24:25.466Z,10.50
2022-10-23T01:27:20.277Z,10.50
2022-10-23T01:29:53.939Z,10.40
2022-10-23T01:32:31.540Z,10.40
2022-10-23T01:35:05.845Z,10.40
2022-10-23T01:37:41.329Z,10.40
2022-10-23T01:40:15.613Z,10.40
2022-10-23T01:42:50.727Z,10.40
2022-10-23T01:45:25.292Z,10.40
2022-10-23T01:47:56.334Z,10.30
2022-10-23T01:50:26.646Z,10.30
2022-10-23T01:52:54.710Z,10.30
2022-10-23T01:55:25.691Z,10.30
2022-10-23T01:57:55.783Z,10.40
2022-10-23T02:00:23.875Z,10.40
2022-10-23T02:02:53.534Z,10.40
2022-10-23T02:05:25.281Z,10.40
2022-10-23T02:07:54.853Z,10.40
2022-10-23T02:10:24.275Z,10.30
2022-10-23T02:13:00.862Z,10.30
2022-10-23T02:15:34.010Z,10.20
2022-10-23T02:18:09.660Z,10.20
2022-10-23T02:20:41.653Z,10.20
2022-10-23T02:23:19.798Z,10.20
2022-10-23T02:25:54.638Z,10.20
2022-10-23T02:28:29.893Z,10.20
2022-10-23T02:31:00.686Z,10.20
2022-10-23T02:33:31.383Z,10.30
2022-10-23T02:35:59.444Z,10.30
2022-10-23T02:38:31.183Z,10.30
2022-10-23T02:41:17.559Z,10.30
2022-10-23T02:43:54.549Z,10.30
2022-10-23T02:46:30.156Z,10.30
2022-10-23T02:49:05.298Z,10.30
2022-10-23T02:51:41.694Z,10.20
2022-10-23T02:54:17.783Z,10.20
2022-10-23T02:56:52.899Z,10.20
2022-10-23T02:59:28.511Z,10.20
2022-10-23T03:02:03.720Z,10.10
2022-10-23T03:04:33.811Z,10.10
2022-10-23T03:07:01.959Z,10.10
2022-10-23T03:09:30.053Z,10.10
2022-10-23T03:11:58.075Z,10.00
2022-10-23T03:14:27.516Z,10.00
2022-10-23T03:16:55.554Z,10.00
2022-10-23T03:19:23.592Z,10.00
2022-10-23T03:21:51.590Z,10.10
2022-10-23T03:24:19.611Z,10.10
2022-10-23T03:26:47.586Z,10.10
2022-10-23T03:29:15.685Z,10.10
2022-10-23T03:31:45.229Z,10.10
2022-10-23T03:34:14.978Z,10.00
2022-10-23T03:36:43.005Z,10.00
2022-10-23T03:39:11.200Z,10.00
2022-10-23T03:41:39.189Z,10.00
2022-10-23T03:44:07.294Z,10.00
2022-10-23T03:46:35.499Z,10.00
2022-10-23T03:49:05.731Z,10.00
2022-10-23T03:51:33.811Z,10.00
2022-10-23T03:54:01.853Z,10.00
2022-10-23T03:56:29.859Z,10.00
2022-10-23T03:58:57.877Z,10.00
2022-10-23T04:01:26.202Z,10.10
2022-10-23T04:03:54.354Z,10.00
2022-10-23T04:06:23.736Z,10.00
2022-10-23T04:08:51.844Z,9.90
2022-10-23T04:11:19.847Z,9.90
2022-10-23T04:13:48.493Z,10.00
2022-10-23T04:16:16.529Z,10.00
2022-10-23T04:18:44.675Z,10.00
2022-10-23T04:21:13.599Z,10.00
2022-10-23T04:23:43.054Z,10.10
2022-10-23T04:26:11.100Z,10.10
2022-10-23T04:28:39.123Z,10.00
2022-10-23T04:31:07.721Z,10.00
2022-10-23T04:33:35.699Z,10.00
2022-10-23T04:36:03.723Z,10.00
2022-10-23T04:38:31.952Z,10.00
2022-10-23T04:41:02.347Z,10.00
2022-10-23T04:43:30.413Z,10.00
2022-10-23T04:45:58.442Z,10.00
2022-10-23T04:48:28.465Z,10.00
2022-10-23T04:50:58.503Z,10.00
2022-10-23T04:53:26.957Z,10.00
2022-10-23T04:55:57.074Z,10.00
2022-10-23T04:58:28.134Z,10.10
2022-10-23T05:00:56.793Z,10.00
2022-10-23T05:03:25.755Z,10.00
2022-10-23T05:05:55.699Z,9.90
2022-10-23T05:08:24.148Z,9.90
2022-10-23T05:10:52.508Z,9.90
2022-10-23T05:13:21.167Z,9.90
2022-10-23T05:15:51.839Z,9.90
2022-10-23T05:18:24.923Z,9.90
2022-10-23T05:20:57.779Z,9.90
2022-10-23T05:23:27.064Z,9.90
2022-10-23T05:25:55.125Z,9.90
2022-10-23T05:28:23.116Z,9.90
2022-10-23T05:30:52.733Z,9.90
2022-10-23T05:33:20.900Z,9.90
2022-10-23T05:35:48.972Z,10.00
2022-10-23T05:38:17.632Z,9.90
2022-10-23T05:40:45.819Z,9.90
2022-10-23T05:43:13.832Z,9.90
2022-10-23T05:45:41.823Z,9.90
2022-10-23T05:48:22.470Z,9.90
2022-10-23T05:51:04.257Z,9.90
2022-10-23T05:53:32.236Z,9.90
2022-10-23T05:56:06.225Z,9.90
2022-10-23T05:58:34.749Z,9.90
2022-10-23T06:01:07.184Z,9.90
2022-10-23T06:03:37.593Z,9.80
2022-10-23T06:06:06.547Z,9.80
2022-10-23T06:08:35.185Z,9.80
2022-10-23T06:11:07.870Z,9.80
2022-10-23T06:13:36.212Z,9.80
2022-10-23T06:16:10.809Z,9.80
2022-10-23T06:18:40.427Z,9.90
2022-10-23T06:21:08.883Z,9.90
2022-10-23T06:23:38.370Z,10.00
2022-10-23T06:26:07.703Z,10.00
2022-10-23T06:28:35.727Z,10.00
2022-10-23T06:31:06.729Z,10.00
2022-10-23T06:33:34.851Z,10.10
2022-10-23T06:36:05.539Z,10.10
2022-10-23T06:38:36.850Z,10.10
2022-10-23T06:41:06.129Z,10.10
2022-10-23T06:43:34.256Z,10.10
2022-10-23T06:46:03.370Z,10.10
2022-10-23T06:48:31.893Z,10.10
2022-10-23T06:51:00.658Z,10.10
2022-10-23T06:53:30.049Z,10.10
2022-10-23T06:56:00.385Z,10.20
2022-10-23T06:58:28.455Z,10.20
2022-10-23T07:00:56.985Z,10.30
2022-10-23T07:03:25.164Z,10.30
2022-10-23T07:05:53.155Z,10.40
2022-10-23T07:08:21.782Z,10.40
2022-10-23T07:10:51.262Z,10.50
2022-10-23T07:13:19.275Z,10.60
2022-10-23T07:15:47.405Z,10.60
2022-10-23T07:18:16.918Z,10.70
2022-10-23T07:20:46.981Z,10.70
2022-10-23T07:23:16.259Z,10.80
2022-10-23T07:25:44.291Z,10.90
2022-10-23T07:28:13.777Z,11.10
2022-10-23T07:30:42.937Z,11.30
2022-10-23T07:33:12.482Z,11.30
2022-10-23T07:35:41.011Z,11.30
2022-10-23T07:38:09.086Z,11.30
2022-10-23T07:40:37.079Z,11.20
2022-10-23T07:43:05.140Z,11.30
2022-10-23T07:45:34.577Z,11.30
2022-10-23T07:48:02.611Z,11.40
2022-10-23T07:50:30.736Z,11.50
2022-10-23T07:52:58.867Z,11.50
2022-10-23T07:55:26.990Z,11.60
2022-10-23T07:57:55.003Z,11.60
2022-10-23T08:02:57.489Z,11.60
2022-10-23T08:05:25.919Z,11.60
2022-10-23T08:07:53.914Z,11.60
2022-10-23T08:10:21.937Z,11.70
2022-10-23T08:12:49.943Z,11.80
2022-10-23T08:15:18.038Z,11.90
2022-10-23T08:17:46.119Z,12.00
2022-10-23T08:20:15.802Z,12.10
2022-10-23T08:22:43.814Z,12.20
2022-10-23T08:25:12.217Z,12.40
2022-10-23T08:27:40.714Z,12.50
2022-10-23T08:30:09.935Z,12.70
2022-10-23T08:32:37.951Z,12.80
2022-10-23T08:35:06.598Z,13.00
2022-10-23T08:37:35.990Z,13.10
2022-10-23T08:40:04.270Z,13.20
2022-10-23T08:42:32.488Z,13.30
2022-10-23T08:45:06.211Z,13.40
2022-10-23T08:47:40.086Z,13.60
2022-10-23T08:50:15.135Z,13.70
2022-10-23T08:52:50.465Z,13.70
2022-10-23T08:55:24.751Z,13.90
2022-10-23T08:57:59.638Z,14.00
2022-10-23T09:00:28.860Z,14.20
2022-10-23T09:02:57.770Z,14.30
2022-10-23T09:05:30.129Z,14.40
2022-10-23T09:08:13.612Z,14.50
2022-10-23T09:10:59.462Z,14.60
2022-10-23T09:13:49.773Z,14.60
2022-10-23T09:16:26.478Z,14.60
2022-10-23T09:18:55.763Z,14.50
2022-10-23T09:21:27.227Z,14.50
2022-10-23T09:23:56.872Z,14.50
2022-10-23T09:26:24.927Z,14.50
2022-10-23T09:28:55.397Z,14.50
2022-10-23T09:31:23.429Z,14.50
2022-10-23T09:33:59.757Z,14.60
2022-10-23T09:36:29.442Z,14.70
2022-10-23T09:39:00.322Z,14.80
2022-10-23T09:41:31.105Z,14.80
2022-10-23T09:44:04.032Z,14.80
2022-10-23T09:46:42.305Z,14.80
2022-10-23T09:49:18.719Z,14.90
2022-10-23T09:52:01.792Z,15.00
2022-10-23T09:54:34.668Z,15.00
2022-10-23T09:57:13.688Z,15.10
2022-10-23T09:59:43.045Z,15.20
2022-10-23T10:02:22.492Z,15.20
2022-10-23T10:04:50.556Z,15.20
2022-10-23T10:07:22.785Z,15.30
2022-10-23T10:09:54.125Z,15.30
2022-10-23T10:12:50.649Z,15.40
2022-10-23T10:15:26.407Z,15.40
2022-10-23T10:18:03.833Z,15.30
2022-10-23T10:20:47.892Z,15.30
2022-10-23T10:23:24.279Z,15.40
2022-10-23T10:26:03.045Z,15.40
2022-10-23T10:28:49.766Z,15.50
2022-10-23T10:31:25.008Z,15.60
2022-10-23T10:34:07.843Z,15.60
2022-10-23T10:36:47.793Z,15.70
2022-10-23T10:39:25.379Z,15.70
2022-10-23T10:42:08.906Z,15.80
2022-10-23T10:44:54.463Z,15.80
2022-10-23T10:47:27.375Z,15.90
2022-10-23T10:50:09.988Z,15.90
2022-10-23T10:52:49.361Z,15.90
2022-10-23T10:55:25.332Z,15.90
2022-10-23T10:58:03.853Z,16.00
2022-10-23T11:00:35.424Z,16.00
2022-10-23T11:03:12.447Z,16.10
2022-10-23T11:05:43.642Z,16.10
2022-10-23T11:08:16.812Z,16.10
2022-10-23T11:10:47.870Z,16.20
2022-10-23T11:13:27.379Z,16.20
2022-10-23T11:16:01.704Z,16.20
2022-10-23T11:18:31.562Z,16.30
2022-10-23T11:21:08.525Z,16.30
2022-10-23T11:24:01.611Z,16.40
2022-10-23T11:26:42.436Z,16.40
2022-10-23T11:29:34.195Z,16.40
2022-10-23T11:32:22.845Z,16.40
2022-10-23T11:35:05.755Z,16.40
2022-10-23T11:37:33.923Z,16.40
2022-10-23T11:40:14.517Z,16.30
2022-10-23T11:42:49.239Z,16.30
2022-10-23T11:45:34.260Z,16.40
2022-10-23T11:48:05.031Z,16.40
2022-10-23T11:50:50.531Z,16.40
2022-10-23T11:53:38.273Z,16.40
2022-10-23T11:56:24.915Z,16.40
2022-10-23T11:58:54.252Z,16.50
2022-10-23T12:01:33.501Z,16.60
2022-10-23T12:04:05.353Z,16.70
2022-10-23T12:06:40.109Z,16.70
2022-10-23T12:09:21.080Z,16.70
2022-10-23T12:11:51.461Z,16.80
2022-10-23T12:14:32.446Z,16.80
2022-10-23T12:17:02.233Z,16.80
2022-10-23T12:19:31.879Z,16.70
2022-10-23T12:22:03.075Z,16.70
2022-10-23T12:24:49.136Z,16.60
2022-10-23T12:27:35.168Z,16.50
2022-10-23T12:30:16.478Z,16.50
2022-10-23T12:33:02.028Z,16.60
2022-10-23T12:35:51.059Z,16.60
2022-10-23T12:38:21.243Z,16.70
2022-10-23T12:40:54.608Z,16.80
2022-10-23T12:43:26.776Z,16.80
2022-10-23T12:45:56.288Z,16.90
2022-10-23T12:48:26.173Z,17.00
2022-10-23T12:50:56.087Z,17.10
2022-10-23T12:53:24.719Z,17.30
2022-10-23T12:55:57.107Z,17.40
2022-10-23T12:58:27.247Z,17.50
2022-10-23T13:00:58.055Z,17.60
2022-10-23T13:03:28.841Z,17.80
2022-10-23T13:05:59.722Z,17.90
2022-10-23T13:08:33.953Z,17.80
2022-10-23T13:11:02.193Z,17.70
2022-10-23T13:13:30.434Z,17.70
2022-10-23T13:15:58.557Z,17.60
2022-10-23T13:18:27.956Z,17.60
2022-10-23T13:23:35.173Z,17.60
2022-10-23T13:26:05.789Z,17.60
2022-10-23T13:28:35.872Z,17.60
2022-10-23T13:31:25.482Z,17.60
2022-10-23T13:34:17.246Z,17.70
2022-10-23T13:36:56.002Z,17.70
2022-10-23T13:39:26.040Z,17.70
2022-10-23T13:41:54.135Z,17.70
2022-10-23T13:44:23.747Z,17.80
2022-10-23T13:46:53.125Z,17.80
2022-10-23T13:49:22.520Z,17.80
2022-10-23T13:51:52.700Z,17.70
2022-10-23T13:54:23.124Z,17.70
2022-10-23T13:56:51.946Z,17.60
2022-10-23T13:59:20.063Z,17.50
2022-10-23T14:01:49.589Z,17.50
2022-10-23T14:04:18.795Z,17.40
2022-10-23T14:06:48.453Z,17.40
2022-10-23T14:09:18.684Z,17.50
2022-10-23T14:11:47.793Z,17.50
2022-10-23T14:14:15.905Z,17.60
2022-10-23T14:16:43.995Z,17.60
2022-10-23T14:19:12.820Z,17.60
2022-10-23T14:21:40.872Z,17.60
2022-10-23T14:24:10.326Z,17.50
2022-10-23T14:26:38.600Z,17.50
2022-10-23T14:29:09.875Z,17.50
2022-10-23T14:31:41.985Z,17.40
2022-10-23T14:34:10.041Z,17.40
2022-10-23T14:36:49.499Z,17.30
2022-10-23T14:39:19.553Z,17.30
2022-10-23T14:41:47.788Z,17.30
2022-10-23T14:44:15.853Z,17.30
2022-10-23T14:46:43.918Z,17.30
2022-10-23T14:49:11.906Z,17.20
2022-10-23T14:51:39.985Z,17.20
2022-10-23T14:54:08.958Z,17.20
2022-10-23T14:56:40.823Z,17.20
2022-10-23T14:59:10.763Z,17.20
2022-10-23T15:01:45.077Z,17.10
2022-10-23T15:04:15.966Z,17.10
2022-10-23T15:06:45.154Z,17.00
2022-10-23T15:09:13.309Z,17.00
2022-10-23T15:11:43.538Z,16.90
2022-10-23T15:14:11.652Z,16.90
2022-10-23T15:16:41.660Z,16.80
2022-10-23T15:19:13.634Z,16.80
2022-10-23T15:21:45.668Z,16.70
2022-10-23T15:24:13.751Z,16.70
2022-10-23T15:26:44.383Z,16.70
2022-10-23T15:29:12.932Z,16.60
2022-10-23T15:31:46.576Z,16.50
2022-10-23T15:34:17.704Z,16.50
2022-10-23T15:36:47.021Z,16.50
2022-10-23T15:39:17.349Z,16.40
2022-10-23T15:41:46.981Z,16.40
2022-10-23T15:44:17.851Z,16.40
2022-10-23T15:46:46.035Z,16.30
2022-10-23T15:49:14.244Z,16.30
2022-10-23T15:51:43.466Z,16.20
2022-10-23T15:54:16.579Z,16.20
2022-10-23T15:56:47.715Z,16.20
2022-10-23T15:59:16.296Z,16.10
2022-10-23T16:01:44.446Z,16.10
2022-10-23T16:04:12.609Z,16.00
2022-10-23T16:06:40.730Z,16.00
2022-10-23T16:09:08.796Z,15.90
2022-10-23T16:11:38.596Z,15.90
2022-10-23T16:14:09.122Z,15.80
2022-10-23T16:16:37.139Z,15.80
2022-10-23T16:19:06.328Z,15.80
2022-10-23T16:21:36.579Z,15.80
2022-10-23T16:24:06.611Z,15.80
2022-10-23T16:26:35.159Z,15.70
2022-10-23T16:29:05.357Z,15.70
2022-10-23T16:31:35.483Z,15.70
2022-10-23T16:34:04.717Z,15.70
2022-10-23T16:36:32.900Z,15.60
2022-10-23T16:39:02.863Z,15.60
2022-10-23T16:41:30.916Z,15.60
2022-10-23T16:43:59.006Z,15.50
2022-10-23T16:46:27.127Z,15.50
2022-10-23T16:48:56.804Z,15.50
2022-10-23T16:51:27.040Z,15.40
2022-10-23T16:53:55.250Z,15.40
2022-10-23T16:56:25.573Z,15.40
2022-10-23T16:58:53.639Z,15.40
2022-10-23T17:01:23.324Z,15.40
2022-10-23T17:03:52.994Z,15.40
2022-10-23T17:06:24.025Z,15.40
2022-10-23T17:08:52.311Z,15.30
2022-10-23T17:11:22.539Z,15.30
2022-10-23T17:13:55.709Z,15.30
2022-10-23T17:16:28.795Z,15.30
2022-10-23T17:18:56.855Z,15.20
2022-10-23T17:21:26.472Z,15.20
2022-10-23T17:23:54.651Z,15.20
2022-10-23T17:26:23.546Z,15.20
2022-10-23T17:28:51.594Z,15.20
2022-10-23T17:31:22.110Z,15.20
2022-10-23T17:33:52.790Z,15.20
2022-10-23T17:36:22.114Z,15.20
2022-10-23T17:38:51.597Z,15.20
2022-10-23T17:41:21.649Z,15.20
2022-10-23T17:43:49.693Z,15.20
2022-10-23T17:46:19.617Z,15.20
2022-10-23T17:48:47.716Z,15.20
2022-10-23T17:51:17.940Z,15.20
2022-10-23T17:53:47.903Z,15.20
2022-10-23T17:56:20.008Z,15.10
2022-10-23T17:58:48.096Z,15.10
2022-10-23T18:01:19.101Z,15.10
2022-10-23T18:03:47.782Z,15.10
2022-10-23T18:06:18.656Z,15.20
2022-10-23T18:08:47.546Z,15.20
2022-10-23T18:11:19.792Z,15.20
2022-10-23T18:13:48.190Z,15.20
2022-10-23T18:16:16.694Z,15.20
2022-10-23T18:18:48.095Z,15.20
2022-10-23T18:21:17.834Z,15.20
2022-10-23T18:23:46.290Z,15.20
2022-10-23T18:26:17.896Z,15.30
2022-10-23T18:28:47.268Z,15.20
2022-10-23T18:31:17.307Z,15.10
2022-10-23T18:33:45.631Z,15.20
2022-10-23T18:36:15.862Z,15.10
2022-10-23T18:38:44.573Z,15.10
2022-10-23T18:41:12.963Z,15.10
2022-10-23T18:43:44.011Z,15.10
2022-10-23T18:46:12.820Z,15.10
2022-10-23T18:48:41.308Z,15.10
2022-10-23T18:51:15.838Z,15.10
2022-10-23T18:53:46.703Z,15.10
2022-10-23T18:56:16.122Z,15.00
2022-10-23T18:58:45.474Z,15.00
2022-10-23T19:01:13.597Z,15.00
2022-10-23T19:03:42.191Z,15.00
2022-10-23T19:06:10.551Z,15.00
2022-10-23T19:08:40.018Z,15.00
2022-10-23T19:11:09.353Z,15.00
2022-10-23T19:13:39.537Z,15.00
2022-10-23T19:16:16.139Z,15.00
2022-10-23T19:18:47.892Z,14.90
2022-10-23T19:21:17.707Z,14.90
2022-10-23T19:23:45.895Z,14.80
2022-10-23T19:26:14.928Z,14.80
2022-10-23T19:28:46.829Z,14.80
2022-10-23T19:31:16.578Z,14.80
2022-10-23T19:33:44.627Z,14.80
2022-10-23T19:36:14.467Z,14.80
2022-10-23T19:38:42.750Z,14.80
2022-10-23T19:41:10.820Z,14.80
2022-10-23T19:43:38.825Z,14.80
2022-10-23T19:46:10.980Z,14.80
2022-10-23T19:48:44.494Z,14.70
2022-10-23T19:51:13.911Z,14.70
2022-10-23T19:53:43.036Z,14.70
2022-10-23T19:56:13.020Z,14.70
2022-10-23T19:58:41.632Z,14.70
2022-10-23T20:01:11.585Z,14.70
2022-10-23T20:03:41.909Z,14.60
2022-10-23T20:06:11.496Z,14.60
2022-10-23T20:08:40.150Z,14.50
2022-10-23T20:11:08.922Z,14.50
2022-10-23T20:13:37.574Z,14.50
2022-10-23T20:16:05.923Z,14.40
2022-10-23T20:18:33.943Z,14.40
2022-10-23T20:21:03.846Z,14.30
2022-10-23T20:23:31.915Z,14.30
2022-10-23T20:26:05.754Z,14.30
2022-10-23T20:28:34.215Z,14.20
2022-10-23T20:31:06.248Z,14.20
2022-10-23T20:33:34.389Z,14.30
2022-10-23T20:36:04.274Z,14.30
2022-10-23T20:38:32.480Z,14.30
2022-10-23T20:41:05.562Z,14.30
2022-10-23T20:43:34.669Z,14.40
2022-10-23T20:46:05.098Z,14.30
2022-10-23T20:48:35.857Z,14.30
2022-10-23T20:51:06.589Z,14.30
2022-10-23T20:53:36.983Z,14.30
2022-10-23T20:56:07.028Z,14.30
2022-10-23T20:58:35.382Z,14.30
2022-10-23T21:01:04.741Z,14.30
2022-10-23T21:03:33.134Z,14.40
2022-10-23T21:06:07.058Z,14.40
2022-10-23T21:08:35.877Z,14.40
2022-10-23T21:11:04.046Z,14.50
2022-10-23T21:13:33.848Z,14.50
2022-10-23T21:16:01.895Z,14.50
2022-10-23T21:18:44.943Z,14.50
2022-10-23T21:21:17.321Z,14.60
2022-10-23T21:23:45.345Z,14.60
2022-10-23T21:26:14.012Z,14.60
2022-10-23T21:28:47.387Z,14.70
2022-10-23T21:31:24.684Z,14.70
2022-10-23T21:33:53.941Z,14.70
2022-10-23T21:36:25.138Z,14.70
2022-10-23T21:38:55.178Z,14.70
2022-10-23T21:41:25.131Z,14.70
2022-10-23T21:43:54.859Z,14.80
2022-10-23T21:46:24.192Z,14.80
2022-10-23T21:48:53.097Z,14.80
2022-10-23T21:51:25.942Z,14.90
2022-10-23T21:53:54.886Z,14.90
2022-10-23T21:56:29.981Z,14.90
2022-10-23T21:58:59.035Z,14.90
2022-10-23T22:01:27.362Z,14.90
2022-10-23T22:03:55.875Z,14.90
2022-10-23T22:06:28.486Z,15.00
2022-10-23T22:08:58.532Z,15.00
2022-10-23T22:11:27.255Z,15.00
2022-10-23T22:13:55.693Z,15.00
2022-10-23T22:16:24.140Z,15.00
2022-10-23T22:18:52.416Z,15.00
2022-10-23T22:21:22.327Z,15.10
2022-10-23T22:23:52.649Z,15.00
2022-10-23T22:26:24.605Z,15.10
2022-10-23T22:28:54.190Z,15.10
2022-10-23T22:31:23.792Z,15.10
2022-10-23T22:33:52.130Z,15.10
2022-10-23T22:36:20.569Z,15.10
2022-10-23T22:38:49.127Z,15.20
2022-10-23T22:41:18.821Z,15.20
2022-10-23T22:43:47.054Z,15.10
2022-10-23T22:46:17.459Z,15.10
2022-10-23T22:48:46.622Z,15.10
2022-10-23T22:51:16.567Z,15.20
2022-10-23T22:53:45.148Z,15.20
2022-10-23T22:56:15.833Z,15.20
2022-10-23T22:58:45.876Z,15.20
2022-10-23T23:01:17.918Z,15.20
2022-10-23T23:03:46.670Z,15.30
2022-10-23T23:06:15.414Z,15.30
2022-10-23T23:08:44.109Z,15.30
2022-10-23T23:11:14.807Z,15.30
2022-10-23T23:13:44.762Z,15.30
2022-10-23T23:16:21.922Z,15.30
2022-10-23T23:18:50.497Z,15.30
2022-10-23T23:21:19.818Z,15.30
2022-10-23T23:23:48.483Z,15.30
2022-10-23T23:26:17.338Z,15.30
2022-10-23T23:28:46.818Z,15.30
2022-10-23T23:31:19.164Z,15.30
2022-10-23T23:33:47.314Z,15.20
2022-10-23T23:36:19.061Z,15.20
2022-10-23T23:38:47.259Z,15.20
2022-10-23T23:41:17.112Z,15.20
2022-10-23T23:43:46.887Z,15.20
2022-10-23T23:46:15.737Z,15.20
2022-10-23T23:48:48.022Z,15.20
2022-10-23T23:51:16.368Z,15.30
2022-10-23T23:53:44.415Z,15.30
2022-10-23T23:56:12.473Z,15.30
2022-10-23T23:58:40.882Z,15.30
